createdAt,value
2022-08-22T00:00:13.389Z,101217.00
2022-08-22T00:02:45.629Z,101227.56
2022-08-22T00:06:02.396Z,101217.28
2022-08-22T00:08:42.677Z,101221.28
2022-08-22T00:11:25.083Z,101220.44
2022-08-22T00:14:02.202Z,101230.91
2022-08-22T00:16:42.564Z,101226.72
2022-08-22T00:19:26.088Z,101221.00
2022-08-22T00:22:03.250Z,101224.66
2022-08-22T00:24:41.080Z,101218.53
2022-08-22T00:27:16.753Z,101211.50
2022-08-22T00:29:51.298Z,101213.69
2022-08-22T00:32:31.471Z,101222.28
2022-08-22T00:35:05.940Z,101219.78
2022-08-22T00:37:42.533Z,101214.97
2022-08-22T00:40:30.942Z,101220.41
2022-08-22T00:43:30.191Z,101221.22
2022-08-22T00:46:42.754Z,101216.53
2022-08-22T00:49:43.288Z,101217.00
2022-08-22T00:53:19.210Z,101218.66
2022-08-22T00:56:09.925Z,101215.63
2022-08-22T00:59:22.717Z,101216.16
2022-08-22T01:02:09.869Z,101212.81
2022-08-22T01:05:03.722Z,101214.28
2022-08-22T01:07:55.398Z,101214.06
2022-08-22T01:10:50.625Z,101217.22
2022-08-22T01:13:44.846Z,101208.97
2022-08-22T01:16:34.372Z,101207.06
2022-08-22T01:19:38.551Z,101204.19
2022-08-22T01:26:32.522Z,101213.56
2022-08-22T01:30:01.662Z,101211.09
2022-08-22T01:33:42.480Z,101206.47
2022-08-22T01:37:08.345Z,101204.09
2022-08-22T01:40:29.125Z,101208.59
2022-08-22T01:43:20.475Z,101202.53
2022-08-22T01:46:32.519Z,101205.28
2022-08-22T01:49:19.019Z,101201.09
2022-08-22T01:51:54.692Z,101201.09
2022-08-22T01:54:38.440Z,101203.09
2022-08-22T01:57:10.151Z,101200.78
2022-08-22T01:59:43.145Z,101197.97
2022-08-22T02:02:43.662Z,101197.03
2022-08-22T02:05:26.505Z,101204.13
2022-08-22T02:08:04.963Z,101195.69
2022-08-22T02:10:56.246Z,101203.06
2022-08-22T02:13:46.172Z,101194.69
2022-08-22T02:16:21.134Z,101207.34
2022-08-22T02:19:19.211Z,101194.91
2022-08-22T02:21:56.754Z,101195.25
2022-08-22T02:24:39.947Z,101194.19
2022-08-22T02:27:27.105Z,101195.75
2022-08-22T02:30:06.794Z,101194.63
2022-08-22T02:32:50.610Z,101194.41
2022-08-22T02:35:28.599Z,101195.03
2022-08-22T02:38:09.083Z,101200.69
2022-08-22T02:40:42.902Z,101191.69
2022-08-22T02:43:21.047Z,101193.69
2022-08-22T02:45:56.975Z,101190.66
2022-08-22T02:48:40.759Z,101188.47
2022-08-22T02:51:20.071Z,101187.09
2022-08-22T02:54:10.692Z,101194.72
2022-08-22T02:56:46.767Z,101188.34
2022-08-22T02:59:31.003Z,101201.38
2022-08-22T03:02:24.255Z,101187.91
2022-08-22T03:04:56.402Z,101189.28
2022-08-22T03:07:37.551Z,101180.81
2022-08-22T03:10:19.515Z,101174.03
2022-08-22T03:13:02.076Z,101176.03
2022-08-22T03:15:40.516Z,101170.72
2022-08-22T03:18:26.085Z,101175.72
2022-08-22T03:21:01.055Z,101172.38
2022-08-22T03:23:43.911Z,101162.88
2022-08-22T03:26:19.246Z,101161.72
2022-08-22T03:28:54.391Z,101162.56
2022-08-22T03:31:32.416Z,101162.34
2022-08-22T03:34:24.749Z,101162.34
2022-08-22T03:37:12.754Z,101163.50
2022-08-22T03:39:52.264Z,101156.09
2022-08-22T03:43:29.609Z,101151.00
2022-08-22T03:46:57.355Z,101157.94
2022-08-22T03:49:59.864Z,101154.50
2022-08-22T03:53:26.003Z,101150.88
2022-08-22T03:56:45.398Z,101139.50
2022-08-22T03:59:53.596Z,101138.13
2022-08-22T04:03:23.391Z,101146.38
2022-08-22T04:06:19.779Z,101150.25
2022-08-22T04:09:32.177Z,101156.50
2022-08-22T04:12:31.086Z,101145.22
2022-08-22T04:15:38.477Z,101147.03
2022-08-22T04:18:48.716Z,101146.00
2022-08-22T04:21:47.948Z,101148.09
2022-08-22T04:24:57.502Z,101156.88
2022-08-22T04:27:31.340Z,101155.13
2022-08-22T04:30:08.482Z,101152.41
2022-08-22T04:32:42.701Z,101151.56
2022-08-22T04:35:19.585Z,101156.66
2022-08-22T04:37:56.992Z,101158.09
2022-08-22T04:40:29.991Z,101155.50
2022-08-22T04:43:06.279Z,101161.13
2022-08-22T04:45:39.304Z,101149.03
2022-08-22T04:48:12.465Z,101161.13
2022-08-22T04:50:50.690Z,101147.38
2022-08-22T04:53:49.438Z,101152.91
2022-08-22T04:56:29.424Z,101161.66
2022-08-22T04:59:01.197Z,101154.88
2022-08-22T05:01:43.896Z,101157.44
2022-08-22T05:04:18.431Z,101169.75
2022-08-22T05:06:54.759Z,101166.63
2022-08-22T05:09:28.789Z,101175.81
2022-08-22T05:12:03.229Z,101185.75
2022-08-22T05:14:39.981Z,101177.84
2022-08-22T05:17:16.897Z,101181.13
2022-08-22T05:19:51.388Z,101176.94
2022-08-22T05:22:26.036Z,101174.56
2022-08-22T05:25:00.760Z,101177.84
2022-08-22T05:27:34.950Z,101181.66
2022-08-22T05:30:09.114Z,101177.53
2022-08-22T05:32:51.785Z,101179.00
2022-08-22T05:35:26.157Z,101175.19
2022-08-22T05:37:57.340Z,101181.19
2022-08-22T05:40:30.278Z,101184.97
2022-08-22T05:42:59.811Z,101199.41
2022-08-22T05:45:29.721Z,101187.19
2022-08-22T05:48:06.765Z,101196.50
2022-08-22T05:50:40.823Z,101193.13
2022-08-22T05:53:16.559Z,101188.84
2022-08-22T05:55:58.822Z,101193.81
2022-08-22T05:58:48.098Z,101180.84
2022-08-22T06:01:33.793Z,101175.44
2022-08-22T06:04:09.284Z,101187.56
2022-08-22T06:06:44.312Z,101187.97
2022-08-22T06:09:35.707Z,101184.22
2022-08-22T06:12:21.914Z,101187.81
2022-08-22T06:15:01.093Z,101190.84
2022-08-22T06:17:36.455Z,101196.91
2022-08-22T06:20:09.669Z,101196.59
2022-08-22T06:22:46.891Z,101195.41
2022-08-22T06:25:23.921Z,101208.41
2022-08-22T06:27:53.920Z,101211.63
2022-08-22T06:30:25.429Z,101214.16
2022-08-22T06:33:01.014Z,101210.66
2022-08-22T06:35:54.823Z,101202.72
2022-08-22T06:38:33.402Z,101205.31
2022-08-22T06:41:07.887Z,101206.69
2022-08-22T06:43:42.716Z,101204.16
2022-08-22T06:46:12.276Z,101210.16
2022-08-22T06:48:41.340Z,101201.28
2022-08-22T06:51:12.465Z,101210.41
2022-08-22T06:53:47.888Z,101205.28
2022-08-22T06:56:24.653Z,101199.69
2022-08-22T06:58:58.108Z,101198.88
2022-08-22T07:01:32.062Z,101198.56
2022-08-22T07:04:07.374Z,101201.81
2022-08-22T07:06:41.286Z,101196.56
2022-08-22T07:09:24.444Z,101194.03
2022-08-22T07:11:57.683Z,101199.31
2022-08-22T07:14:32.627Z,101209.75
2022-08-22T07:17:04.819Z,101206.63
2022-08-22T07:19:36.943Z,101208.66
2022-08-22T07:22:15.661Z,101207.66
2022-08-22T07:24:52.139Z,101211.94
2022-08-22T07:27:40.411Z,101209.34
2022-08-22T07:30:12.895Z,101203.91
2022-08-22T07:32:52.966Z,101205.97
2022-08-22T07:35:25.927Z,101207.78
2022-08-22T07:38:10.008Z,101210.13
2022-08-22T07:40:48.392Z,101217.66
2022-08-22T07:43:28.673Z,101216.13
2022-08-22T07:46:01.517Z,101219.53
2022-08-22T07:48:44.712Z,101222.97
2022-08-22T07:51:34.855Z,101213.19
2022-08-22T07:54:07.312Z,101218.47
2022-08-22T07:56:39.957Z,101218.28
2022-08-22T07:59:14.497Z,101214.66
2022-08-22T08:01:47.791Z,101213.91
2022-08-22T08:04:21.904Z,101214.09
2022-08-22T08:06:52.728Z,101211.00
2022-08-22T08:09:22.240Z,101208.69
2022-08-22T08:11:54.603Z,101201.31
2022-08-22T08:14:26.430Z,101207.13
2022-08-22T08:17:02.371Z,101201.13
2022-08-22T08:19:33.446Z,101197.53
2022-08-22T08:22:02.491Z,101192.63
2022-08-22T08:24:40.800Z,101190.78
2022-08-22T08:27:35.672Z,101190.88
2022-08-22T08:30:15.372Z,101189.44
2022-08-22T08:32:49.029Z,101181.78
2022-08-22T08:35:23.706Z,101183.16
2022-08-22T08:37:59.223Z,101187.25
2022-08-22T08:41:13.876Z,101181.66
2022-08-22T08:43:57.311Z,101185.72
2022-08-22T08:46:57.488Z,101173.94
2022-08-22T08:50:02.397Z,101173.88
2022-08-22T08:52:52.540Z,101178.44
2022-08-22T08:55:39.483Z,101173.22
2022-08-22T08:58:35.071Z,101167.22
2022-08-22T09:02:08.428Z,101162.34
2022-08-22T09:05:17.036Z,101156.97
2022-08-22T09:08:35.504Z,101157.81
2022-08-22T09:12:02.666Z,101155.25
2022-08-22T09:15:17.186Z,101145.28
2022-08-22T09:18:23.280Z,101147.78
2022-08-22T09:21:40.336Z,101145.09
2022-08-22T09:24:48.277Z,101145.00
2022-08-22T09:27:24.440Z,101134.97
2022-08-22T09:30:00.587Z,101142.06
2022-08-22T09:32:44.577Z,101137.41
2022-08-22T09:35:26.729Z,101137.09
2022-08-22T09:38:38.160Z,101136.06
2022-08-22T09:41:24.607Z,101131.16
2022-08-22T09:44:08.147Z,101132.38
2022-08-22T09:46:56.293Z,101132.47
2022-08-22T09:49:44.784Z,101136.72
2022-08-22T09:52:44.496Z,101126.06
2022-08-22T09:55:35.934Z,101130.44
2022-08-22T09:58:27.785Z,101116.94
2022-08-22T10:01:00.752Z,101125.78
2022-08-22T10:03:49.532Z,101122.72
2022-08-22T10:06:25.440Z,101123.94
2022-08-22T10:09:04.902Z,101120.78
2022-08-22T10:11:44.565Z,101125.19
2022-08-22T10:14:22.038Z,101122.59
2022-08-22T10:17:03.681Z,101117.13
2022-08-22T10:19:39.411Z,101114.97
2022-08-22T10:22:39.787Z,101117.38
2022-08-22T10:25:28.438Z,101133.97
2022-08-22T10:28:16.084Z,101128.25
2022-08-22T10:31:00.490Z,101118.59
2022-08-22T10:33:34.762Z,101119.50
2022-08-22T10:36:11.707Z,101109.63
2022-08-22T10:38:47.185Z,101119.16
2022-08-22T10:41:30.583Z,101114.97
2022-08-22T10:44:09.193Z,101104.28
2022-08-22T10:46:46.210Z,101105.41
2022-08-22T10:49:28.330Z,101098.66
2022-08-22T10:52:15.276Z,101105.25
2022-08-22T10:54:49.474Z,101115.38
2022-08-22T10:57:41.287Z,101103.75
2022-08-22T11:00:36.034Z,101103.94
2022-08-22T11:03:21.796Z,101098.25
2022-08-22T11:05:54.295Z,101085.25
2022-08-22T11:09:14.977Z,101085.88
2022-08-22T11:11:49.035Z,101091.09
2022-08-22T11:14:57.659Z,101087.25
2022-08-22T11:17:53.762Z,101082.91
2022-08-22T11:20:29.568Z,101077.00
2022-08-22T11:23:20.918Z,101083.66
2022-08-22T11:26:01.337Z,101084.19
2022-08-22T11:29:14.009Z,101081.28
2022-08-22T11:31:54.891Z,101080.78
2022-08-22T11:34:42.864Z,101078.28
2022-08-22T11:37:42.692Z,101073.00
2022-08-22T11:40:28.155Z,101078.75
2022-08-22T11:43:12.023Z,101075.00
2022-08-22T11:45:49.565Z,101074.97
2022-08-22T11:48:26.763Z,101076.66
2022-08-22T11:51:13.025Z,101081.63
2022-08-22T11:53:48.499Z,101075.38
2022-08-22T11:56:26.941Z,101069.47
2022-08-22T11:59:02.559Z,101058.59
2022-08-22T12:01:42.560Z,101058.78
2022-08-22T12:04:21.583Z,101060.16
2022-08-22T12:07:00.732Z,101064.03
2022-08-22T12:09:48.154Z,101056.47
2022-08-22T12:12:46.561Z,101053.78
2022-08-22T12:15:21.472Z,101053.22
2022-08-22T12:18:30.079Z,101054.06
2022-08-22T12:21:49.643Z,101051.88
2022-08-22T12:24:52.875Z,101047.69
2022-08-22T12:27:48.250Z,101047.81
2022-08-22T12:30:32.465Z,101046.59
2022-08-22T12:33:33.026Z,101039.22
2022-08-22T12:36:28.729Z,101034.72
2022-08-22T12:39:29.522Z,101036.78
2022-08-22T12:42:43.496Z,101041.25
2022-08-22T12:45:50.793Z,101029.94
2022-08-22T12:48:41.239Z,101031.22
2022-08-22T12:51:31.570Z,101035.88
2022-08-22T12:54:44.177Z,101023.31
2022-08-22T12:57:27.549Z,101027.75
2022-08-22T13:00:05.595Z,101016.69
2022-08-22T13:02:39.448Z,101026.72
2022-08-22T13:05:19.879Z,101025.22
2022-08-22T13:07:56.090Z,101025.88
2022-08-22T13:10:46.300Z,101020.31
2022-08-22T13:13:31.664Z,101019.22
2022-08-22T13:16:11.749Z,101012.19
2022-08-22T13:18:53.557Z,101012.66
2022-08-22T13:21:31.748Z,101011.50
2022-08-22T13:24:11.111Z,101011.03
2022-08-22T13:26:49.730Z,101005.84
2022-08-22T13:29:27.465Z,101012.16
2022-08-22T13:32:10.485Z,101012.31
2022-08-22T13:34:45.966Z,101001.94
2022-08-22T13:37:24.733Z,101006.22
2022-08-22T13:40:00.082Z,101011.84
2022-08-22T13:42:33.518Z,101002.56
2022-08-22T13:45:12.197Z,101009.06
2022-08-22T13:47:52.456Z,100992.03
2022-08-22T13:50:25.167Z,100994.13
2022-08-22T13:53:03.431Z,100986.59
2022-08-22T13:55:42.917Z,100990.69
2022-08-22T13:58:25.003Z,100988.81
2022-08-22T14:01:28.815Z,100992.75
2022-08-22T14:04:01.704Z,100987.09
2022-08-22T14:06:43.925Z,100979.22
2022-08-22T14:09:31.420Z,100985.66
2022-08-22T14:12:14.826Z,100988.69
2022-08-22T14:14:47.203Z,100977.09
2022-08-22T14:17:20.945Z,100974.22
2022-08-22T14:19:59.722Z,100970.63
2022-08-22T14:22:35.375Z,100972.97
2022-08-22T14:25:08.834Z,100976.63
2022-08-22T14:27:40.542Z,100973.09
2022-08-22T14:30:17.116Z,100971.41
2022-08-22T14:32:54.578Z,100969.56
2022-08-22T14:35:35.266Z,100974.56
2022-08-22T14:38:30.002Z,100967.84
2022-08-22T14:41:03.863Z,100971.38
2022-08-22T14:43:52.339Z,100965.22
2022-08-22T14:46:26.611Z,100959.97
2022-08-22T14:49:25.281Z,100959.84
2022-08-22T14:52:03.367Z,100956.06
2022-08-22T14:54:33.766Z,100955.56
2022-08-22T14:57:20.808Z,100952.72
2022-08-22T14:59:53.051Z,100956.69
2022-08-22T15:02:29.143Z,100951.72
2022-08-22T15:05:13.139Z,100956.38
2022-08-22T15:07:41.766Z,100944.97
2022-08-22T15:10:23.317Z,100943.84
2022-08-22T15:12:55.016Z,100938.25
2022-08-22T15:15:49.259Z,100932.72
2022-08-22T15:18:34.904Z,100934.19
2022-08-22T15:21:12.319Z,100933.22
2022-08-22T15:23:46.920Z,100935.72
2022-08-22T15:26:26.235Z,100936.16
2022-08-22T15:29:06.983Z,100932.22
2022-08-22T15:31:39.751Z,100929.19
2022-08-22T15:34:24.418Z,100922.34
2022-08-22T15:37:29.620Z,100925.53
2022-08-22T15:40:12.825Z,100919.22
2022-08-22T15:42:46.100Z,100923.94
2022-08-22T15:45:30.678Z,100926.91
2022-08-22T15:48:04.769Z,100923.28
2022-08-22T15:50:38.243Z,100912.72
2022-08-22T15:53:23.982Z,100918.63
2022-08-22T15:56:28.261Z,100917.47
2022-08-22T15:59:47.704Z,100914.88
2022-08-22T16:02:35.364Z,100919.16
2022-08-22T16:05:27.394Z,100912.72
2022-08-22T16:08:06.054Z,100926.06
2022-08-22T16:10:42.647Z,100921.47
2022-08-22T16:13:33.683Z,100923.16
2022-08-22T16:16:08.103Z,100929.63
2022-08-22T16:19:23.419Z,100922.84
2022-08-22T16:22:15.993Z,100922.38
2022-08-22T16:25:10.428Z,100915.91
2022-08-22T16:27:55.566Z,100924.22
2022-08-22T16:30:39.843Z,100924.41
2022-08-22T16:33:18.005Z,100923.66
2022-08-22T16:36:46.473Z,100919.22
2022-08-22T16:39:40.266Z,100916.09
2022-08-22T16:42:36.536Z,100915.69
2022-08-22T16:45:20.117Z,100917.63
2022-08-22T16:47:54.571Z,100917.56
2022-08-22T16:50:35.674Z,100910.81
2022-08-22T16:53:11.202Z,100913.13
2022-08-22T16:56:04.760Z,100918.59
2022-08-22T16:59:23.532Z,100913.88
2022-08-22T17:02:26.041Z,100919.19
2022-08-22T17:05:13.122Z,100904.41
2022-08-22T17:08:03.702Z,100911.72
2022-08-22T17:10:48.163Z,100903.22
2022-08-22T17:13:32.799Z,100897.81
2022-08-22T17:16:36.882Z,100902.41
2022-08-22T17:19:20.887Z,100897.31
2022-08-22T17:21:56.071Z,100905.81
2022-08-22T17:24:36.956Z,100894.91
2022-08-22T17:27:17.719Z,100897.75
2022-08-22T17:30:01.480Z,100891.41
2022-08-22T17:32:47.645Z,100899.00
2022-08-22T17:36:01.359Z,100891.53
2022-08-22T17:38:48.592Z,100904.28
2022-08-22T17:41:34.889Z,100896.09
2022-08-22T17:44:14.988Z,100904.84
2022-08-22T17:46:52.959Z,100911.00
2022-08-22T17:49:31.161Z,100906.94
2022-08-22T17:52:10.642Z,100909.25
2022-08-22T17:54:47.003Z,100906.47
2022-08-22T17:57:28.149Z,100922.50
2022-08-22T18:00:02.181Z,100910.63
2022-08-22T18:02:39.583Z,100919.00
2022-08-22T18:05:14.539Z,100919.06
2022-08-22T18:08:07.797Z,100921.84
2022-08-22T18:10:50.748Z,100918.03
2022-08-22T18:13:38.151Z,100914.94
2022-08-22T18:16:23.045Z,100913.94
2022-08-22T18:19:01.916Z,100923.63
2022-08-22T18:21:36.546Z,100919.19
2022-08-22T18:24:25.362Z,100919.97
2022-08-22T18:27:02.158Z,100917.63
2022-08-22T18:29:43.494Z,100922.94
2022-08-22T18:32:22.086Z,100927.50
2022-08-22T18:35:04.348Z,100927.00
2022-08-22T18:37:54.893Z,100923.69
2022-08-22T18:40:35.042Z,100925.31
2022-08-22T18:43:18.026Z,100935.88
2022-08-22T18:46:04.508Z,100928.97
2022-08-22T18:49:05.402Z,100943.47
2022-08-22T18:51:38.199Z,100941.69
2022-08-22T18:54:37.138Z,100946.19
2022-08-22T18:57:38.713Z,100949.00
2022-08-22T19:00:16.585Z,100942.56
2022-08-22T19:03:20.892Z,100950.88
2022-08-22T19:06:28.964Z,100957.41
2022-08-22T19:09:48.854Z,100956.47
2022-08-22T19:12:42.102Z,100954.22
2022-08-22T19:15:29.690Z,100967.13
2022-08-22T19:18:28.579Z,100959.34
2022-08-22T19:21:43.046Z,100968.16
2022-08-22T19:24:35.131Z,100977.44
2022-08-22T19:27:30.926Z,100969.28
2022-08-22T19:30:08.203Z,100973.53
2022-08-22T19:33:08.795Z,100968.13
2022-08-22T19:36:11.384Z,100973.97
2022-08-22T19:39:00.074Z,100967.97
2022-08-22T19:41:52.917Z,100967.97
2022-08-22T19:44:42.303Z,100974.50
2022-08-22T19:47:31.281Z,100976.28
2022-08-22T19:50:08.426Z,100975.00
2022-08-22T19:53:00.944Z,100980.78
2022-08-22T19:55:51.411Z,100968.06
2022-08-22T19:58:31.778Z,100969.78
2022-08-22T20:01:13.085Z,100973.59
2022-08-22T20:03:55.455Z,100976.44
2022-08-22T20:06:47.813Z,100971.78
2022-08-22T20:09:38.499Z,100973.28
2022-08-22T20:12:15.833Z,100975.28
2022-08-22T20:14:47.462Z,100974.09
2022-08-22T20:17:43.708Z,100978.91
2022-08-22T20:20:35.235Z,100978.97
2022-08-22T20:23:12.924Z,100981.16
2022-08-22T20:25:49.436Z,100977.28
2022-08-22T20:28:45.588Z,100972.56
2022-08-22T20:31:23.119Z,100979.13
2022-08-22T20:34:04.353Z,100978.09
2022-08-22T20:36:33.216Z,100973.13
2022-08-22T20:39:08.735Z,100978.94
2022-08-22T20:41:41.370Z,100981.09
2022-08-22T20:44:17.624Z,100977.28
2022-08-22T20:46:55.745Z,100966.47
2022-08-22T20:49:29.643Z,100973.47
2022-08-22T20:52:02.166Z,100966.28
2022-08-22T20:54:33.276Z,100975.41
2022-08-22T20:57:11.409Z,100972.88
2022-08-22T20:59:43.067Z,100968.03
2022-08-22T21:02:19.231Z,100968.25
2022-08-22T21:05:00.192Z,100965.25
2022-08-22T21:07:31.985Z,100965.25
2022-08-22T21:10:23.124Z,100963.56
2022-08-22T21:13:12.029Z,100964.53
2022-08-22T21:15:44.858Z,100967.84
2022-08-22T21:18:29.188Z,100970.84
2022-08-22T21:21:17.042Z,100969.53
2022-08-22T21:23:49.272Z,100965.84
2022-08-22T21:26:26.141Z,100969.00
2022-08-22T21:29:00.021Z,100967.50
2022-08-22T21:31:32.366Z,100968.66
2022-08-22T21:34:01.653Z,100972.34
2022-08-22T21:36:32.974Z,100971.00
2022-08-22T21:39:04.863Z,100962.50
2022-08-22T21:41:41.133Z,100971.31
2022-08-22T21:44:27.615Z,100963.84
2022-08-22T21:46:57.794Z,100963.50
2022-08-22T21:49:30.543Z,100969.00
2022-08-22T21:52:00.286Z,100960.03
2022-08-22T21:54:42.151Z,100968.03
2022-08-22T21:57:37.588Z,100962.22
2022-08-22T22:00:31.553Z,100966.22
2022-08-22T22:03:02.896Z,100972.34
2022-08-22T22:05:31.293Z,100970.03
2022-08-22T22:07:59.632Z,100973.88
2022-08-22T22:10:28.007Z,100978.38
2022-08-22T22:12:59.693Z,100975.03
2022-08-22T22:15:32.994Z,100970.41
2022-08-22T22:18:02.582Z,100966.75
2022-08-22T22:20:31.095Z,100974.72
2022-08-22T22:22:59.938Z,100969.88
2022-08-22T22:25:40.482Z,100970.91
2022-08-22T22:28:14.701Z,100972.91
2022-08-22T22:30:45.102Z,100968.91
2022-08-22T22:33:14.715Z,100968.25
2022-08-22T22:35:43.202Z,100967.56
2022-08-22T22:38:12.384Z,100968.75
2022-08-22T22:40:42.051Z,100972.75
2022-08-22T22:43:11.185Z,100968.25
2022-08-22T22:45:40.259Z,100971.44
2022-08-22T22:48:09.175Z,100979.09
2022-08-22T22:50:40.982Z,100968.25
2022-08-22T22:53:09.562Z,100970.09
2022-08-22T22:55:41.448Z,100969.78
2022-08-22T22:58:10.367Z,100975.75
2022-08-22T23:00:38.877Z,100961.28
2022-08-22T23:03:07.546Z,100960.47
2022-08-22T23:05:37.994Z,100960.78
2022-08-22T23:08:06.298Z,100970.09
2022-08-22T23:10:34.767Z,100960.78
2022-08-22T23:13:03.116Z,100968.94
2022-08-22T23:15:31.566Z,100971.59
2022-08-22T23:17:59.952Z,100959.94
2022-08-22T23:20:28.361Z,100964.94
2022-08-22T23:22:59.518Z,100963.44
2022-08-22T23:25:28.000Z,100965.25
2022-08-22T23:27:57.417Z,100969.94
2022-08-22T23:30:25.838Z,100964.63
2022-08-22T23:32:55.724Z,100971.94
2022-08-22T23:35:24.296Z,100971.44
2022-08-22T23:37:52.777Z,100968.44
2022-08-22T23:40:22.651Z,100961.63
2022-08-22T23:42:51.042Z,100967.47
2022-08-22T23:45:21.529Z,100969.47
2022-08-22T23:47:50.129Z,100973.44
2022-08-22T23:50:18.590Z,100969.63
2022-08-22T23:52:47.136Z,100971.78
2022-08-22T23:55:15.490Z,100971.78
2022-08-22T23:57:45.185Z,100975.78
